sensor_id;sensor_type;location;lat;lon;timestamp;P1;durP1;ratioP1;P2;durP2;ratioP2
52248;SDS011;38541;48.130;8.378;2023-03-21T00:00:27;1.75;;;1.65;;
52248;SDS011;38541;48.130;8.378;2023-03-21T00:02:53;2.03;;;1.80;;
52248;SDS011;38541;48.130;8.378;2023-03-21T00:05:20;2.10;;;1.90;;
52248;SDS011;38541;48.130;8.378;2023-03-21T00:07:47;2.03;;;1.85;;
52248;SDS011;38541;48.130;8.378;2023-03-21T00:10:13;2.42;;;1.90;;
52248;SDS011;38541;48.130;8.378;2023-03-21T00:12:49;2.05;;;1.92;;
52248;SDS011;38541;48.130;8.378;2023-03-21T00:15:20;2.60;;;2.15;;
52248;SDS011;38541;48.130;8.378;2023-03-21T00:17:55;2.05;;;1.85;;
52248;SDS011;38541;48.130;8.378;2023-03-21T00:20:37;2.13;;;1.92;;
52248;SDS011;38541;48.130;8.378;2023-03-21T00:23:04;2.10;;;1.98;;
52248;SDS011;38541;48.130;8.378;2023-03-21T00:25:30;1.90;;;1.80;;
52248;SDS011;38541;48.130;8.378;2023-03-21T00:27:58;2.47;;;2.28;;
52248;SDS011;38541;48.130;8.378;2023-03-21T00:30:33;3.17;;;1.77;;
52248;SDS011;38541;48.130;8.378;2023-03-21T00:33:00;1.98;;;1.80;;
52248;SDS011;38541;48.130;8.378;2023-03-21T00:35:37;1.95;;;1.80;;
52248;SDS011;38541;48.130;8.378;2023-03-21T00:38:24;2.67;;;2.10;;
52248;SDS011;38541;48.130;8.378;2023-03-21T00:40:51;2.03;;;1.90;;
52248;SDS011;38541;48.130;8.378;2023-03-21T00:43:18;1.95;;;1.85;;
52248;SDS011;38541;48.130;8.378;2023-03-21T00:45:49;6.45;;;5.85;;
52248;SDS011;38541;48.130;8.378;2023-03-21T00:48:17;4.50;;;4.10;;
52248;SDS011;38541;48.130;8.378;2023-03-21T00:50:44;2.90;;;2.70;;
52248;SDS011;38541;48.130;8.378;2023-03-21T00:53:15;2.50;;;2.28;;
52248;SDS011;38541;48.130;8.378;2023-03-21T00:55:41;1.90;;;1.80;;
52248;SDS011;38541;48.130;8.378;2023-03-21T00:58:08;1.73;;;1.63;;
52248;SDS011;38541;48.130;8.378;2023-03-21T01:00:34;2.25;;;1.80;;
52248;SDS011;38541;48.130;8.378;2023-03-21T01:03:05;2.60;;;1.88;;
52248;SDS011;38541;48.130;8.378;2023-03-21T01:05:49;2.20;;;2.00;;
52248;SDS011;38541;48.130;8.378;2023-03-21T01:08:33;2.15;;;1.95;;
52248;SDS011;38541;48.130;8.378;2023-03-21T01:11:18;1.67;;;1.58;;
52248;SDS011;38541;48.130;8.378;2023-03-21T01:13:47;2.13;;;1.85;;
52248;SDS011;38541;48.130;8.378;2023-03-21T01:16:35;3.15;;;1.27;;
52248;SDS011;38541;48.130;8.378;2023-03-21T01:19:02;1.50;;;1.40;;
52248;SDS011;38541;48.130;8.378;2023-03-21T01:21:37;1.63;;;1.52;;
52248;SDS011;38541;48.130;8.378;2023-03-21T01:24:04;2.53;;;1.50;;
52248;SDS011;38541;48.130;8.378;2023-03-21T01:26:30;2.05;;;1.70;;
52248;SDS011;38541;48.130;8.378;2023-03-21T01:28:57;1.65;;;1.55;;
52248;SDS011;38541;48.130;8.378;2023-03-21T01:31:24;3.22;;;1.83;;
52248;SDS011;38541;48.130;8.378;2023-03-21T01:33:51;1.77;;;1.67;;
52248;SDS011;38541;48.130;8.378;2023-03-21T01:36:18;2.42;;;1.60;;
52248;SDS011;38541;48.130;8.378;2023-03-21T01:38:55;2.00;;;1.80;;
52248;SDS011;38541;48.130;8.378;2023-03-21T01:41:27;1.90;;;1.80;;
52248;SDS011;38541;48.130;8.378;2023-03-21T01:44:16;1.70;;;1.52;;
52248;SDS011;38541;48.130;8.378;2023-03-21T01:46:45;1.70;;;1.60;;
52248;SDS011;38541;48.130;8.378;2023-03-21T01:50:00;2.05;;;1.95;;
52248;SDS011;38541;48.130;8.378;2023-03-21T01:52:44;1.52;;;1.42;;
52248;SDS011;38541;48.130;8.378;2023-03-21T01:55:22;1.55;;;1.45;;
52248;SDS011;38541;48.130;8.378;2023-03-21T01:57:55;2.40;;;1.63;;
52248;SDS011;38541;48.130;8.378;2023-03-21T02:00:54;1.70;;;1.60;;
52248;SDS011;38541;48.130;8.378;2023-03-21T02:03:30;1.63;;;1.52;;
52248;SDS011;38541;48.130;8.378;2023-03-21T02:06:24;1.40;;;1.30;;
52248;SDS011;38541;48.130;8.378;2023-03-21T02:09:04;1.73;;;1.63;;
52248;SDS011;38541;48.130;8.378;2023-03-21T02:11:35;2.22;;;1.65;;
52248;SDS011;38541;48.130;8.378;2023-03-21T02:14:03;1.63;;;1.52;;
52248;SDS011;38541;48.130;8.378;2023-03-21T02:28:21;1.60;;;1.50;;
52248;SDS011;38541;48.130;8.378;2023-03-21T02:39:28;2.08;;;1.88;;
52248;SDS011;38541;48.130;8.378;2023-03-21T02:42:36;1.25;;;1.25;;
52248;SDS011;38541;48.130;8.378;2023-03-21T02:45:27;1.52;;;1.35;;
52248;SDS011;38541;48.130;8.378;2023-03-21T02:48:07;2.35;;;1.40;;
52248;SDS011;38541;48.130;8.378;2023-03-21T02:50:54;1.75;;;1.65;;
52248;SDS011;38541;48.130;8.378;2023-03-21T02:53:26;1.60;;;1.50;;
52248;SDS011;38541;48.130;8.378;2023-03-21T02:55:58;1.60;;;1.50;;
52248;SDS011;38541;48.130;8.378;2023-03-21T02:58:27;1.70;;;1.60;;
52248;SDS011;38541;48.130;8.378;2023-03-21T03:00:57;3.63;;;1.90;;
52248;SDS011;38541;48.130;8.378;2023-03-21T03:03:34;1.50;;;1.40;;
52248;SDS011;38541;48.130;8.378;2023-03-21T03:06:06;1.60;;;1.50;;
52248;SDS011;38541;48.130;8.378;2023-03-21T03:08:59;2.10;;;1.80;;
52248;SDS011;38541;48.130;8.378;2023-03-21T03:12:02;3.90;;;3.38;;
52248;SDS011;38541;48.130;8.378;2023-03-21T03:14:56;4.22;;;3.83;;
52248;SDS011;38541;48.130;8.378;2023-03-21T03:20:34;4.13;;;3.40;;
52248;SDS011;38541;48.130;8.378;2023-03-21T03:26:02;3.10;;;2.30;;
52248;SDS011;38541;48.130;8.378;2023-03-21T03:28:40;1.88;;;1.77;;
52248;SDS011;38541;48.130;8.378;2023-03-21T03:31:15;2.20;;;2.00;;
52248;SDS011;38541;48.130;8.378;2023-03-21T03:33:51;2.25;;;1.70;;
52248;SDS011;38541;48.130;8.378;2023-03-21T03:36:22;1.70;;;1.60;;
52248;SDS011;38541;48.130;8.378;2023-03-21T03:39:05;2.25;;;2.15;;
52248;SDS011;38541;48.130;8.378;2023-03-21T03:41:45;1.65;;;1.52;;
52248;SDS011;38541;48.130;8.378;2023-03-21T03:44:40;2.22;;;1.60;;
52248;SDS011;38541;48.130;8.378;2023-03-21T03:47:09;3.40;;;2.00;;
52248;SDS011;38541;48.130;8.378;2023-03-21T03:50:06;2.05;;;1.92;;
52248;SDS011;38541;48.130;8.378;2023-03-21T03:52:41;1.92;;;1.80;;
52248;SDS011;38541;48.130;8.378;2023-03-21T03:55:24;2.17;;;1.80;;
52248;SDS011;38541;48.130;8.378;2023-03-21T03:57:57;1.70;;;1.60;;
52248;SDS011;38541;48.130;8.378;2023-03-21T04:00:24;2.60;;;1.65;;
52248;SDS011;38541;48.130;8.378;2023-03-21T04:02:52;1.83;;;1.73;;
52248;SDS011;38541;48.130;8.378;2023-03-21T04:05:21;2.55;;;2.35;;
52248;SDS011;38541;48.130;8.378;2023-03-21T04:07:49;8.02;;;6.32;;
52248;SDS011;38541;48.130;8.378;2023-03-21T04:10:20;6.90;;;5.53;;
52248;SDS011;38541;48.130;8.378;2023-03-21T04:12:48;4.75;;;3.22;;
52248;SDS011;38541;48.130;8.378;2023-03-21T04:15:23;2.95;;;2.30;;
52248;SDS011;38541;48.130;8.378;2023-03-21T04:17:58;2.63;;;1.80;;
52248;SDS011;38541;48.130;8.378;2023-03-21T04:20:24;2.58;;;1.90;;
52248;SDS011;38541;48.130;8.378;2023-03-21T04:23:08;1.90;;;1.70;;
52248;SDS011;38541;48.130;8.378;2023-03-21T04:25:35;1.92;;;1.80;;
52248;SDS011;38541;48.130;8.378;2023-03-21T04:28:15;18.10;;;8.32;;
52248;SDS011;38541;48.130;8.378;2023-03-21T04:30:50;19.13;;;9.02;;
52248;SDS011;38541;48.130;8.378;2023-03-21T04:33:35;6.93;;;3.70;;
52248;SDS011;38541;48.130;8.378;2023-03-21T04:36:04;11.20;;;4.40;;
52248;SDS011;38541;48.130;8.378;2023-03-21T04:38:32;7.70;;;3.00;;
52248;SDS011;38541;48.130;8.378;2023-03-21T04:41:02;5.72;;;3.45;;
52248;SDS011;38541;48.130;8.378;2023-03-21T04:43:29;4.20;;;2.40;;
52248;SDS011;38541;48.130;8.378;2023-03-21T04:45:56;3.05;;;2.67;;
52248;SDS011;38541;48.130;8.378;2023-03-21T04:48:23;2.42;;;2.22;;
52248;SDS011;38541;48.130;8.378;2023-03-21T04:50:50;2.38;;;2.17;;
52248;SDS011;38541;48.130;8.378;2023-03-21T04:53:17;8.45;;;5.22;;
52248;SDS011;38541;48.130;8.378;2023-03-21T04:55:43;11.25;;;6.10;;
52248;SDS011;38541;48.130;8.378;2023-03-21T04:58:10;4.32;;;2.25;;
52248;SDS011;38541;48.130;8.378;2023-03-21T05:00:37;2.13;;;1.67;;
52248;SDS011;38541;48.130;8.378;2023-03-21T05:03:04;1.67;;;1.58;;
52248;SDS011;38541;48.130;8.378;2023-03-21T05:05:35;1.77;;;1.67;;
52248;SDS011;38541;48.130;8.378;2023-03-21T05:08:03;7.07;;;2.80;;
52248;SDS011;38541;48.130;8.378;2023-03-21T05:10:31;25.65;;;11.02;;
52248;SDS011;38541;48.130;8.378;2023-03-21T05:12:59;20.60;;;8.25;;
52248;SDS011;38541;48.130;8.378;2023-03-21T05:15:26;6.75;;;4.15;;
52248;SDS011;38541;48.130;8.378;2023-03-21T05:17:53;4.75;;;3.60;;
52248;SDS011;38541;48.130;8.378;2023-03-21T05:20:19;5.95;;;5.05;;
52248;SDS011;38541;48.130;8.378;2023-03-21T05:22:46;8.98;;;5.65;;
52248;SDS011;38541;48.130;8.378;2023-03-21T05:25:17;3.10;;;2.50;;
52248;SDS011;38541;48.130;8.378;2023-03-21T05:30:44;1.88;;;1.70;;
52248;SDS011;38541;48.130;8.378;2023-03-21T05:33:12;3.05;;;2.20;;
52248;SDS011;38541;48.130;8.378;2023-03-21T05:35:39;4.82;;;3.10;;
52248;SDS011;38541;48.130;8.378;2023-03-21T05:38:08;3.28;;;2.53;;
52248;SDS011;38541;48.130;8.378;2023-03-21T05:40:48;4.50;;;3.15;;
52248;SDS011;38541;48.130;8.378;2023-03-21T05:43:16;3.58;;;2.80;;
52248;SDS011;38541;48.130;8.378;2023-03-21T05:45:43;2.60;;;2.40;;
52248;SDS011;38541;48.130;8.378;2023-03-21T05:48:10;8.05;;;4.00;;
52248;SDS011;38541;48.130;8.378;2023-03-21T05:50:53;8.63;;;5.25;;
52248;SDS011;38541;48.130;8.378;2023-03-21T05:53:21;6.38;;;4.13;;
52248;SDS011;38541;48.130;8.378;2023-03-21T05:55:48;8.85;;;5.32;;
52248;SDS011;38541;48.130;8.378;2023-03-21T05:58:32;6.63;;;4.65;;
52248;SDS011;38541;48.130;8.378;2023-03-21T06:00:59;5.70;;;4.68;;
52248;SDS011;38541;48.130;8.378;2023-03-21T06:03:30;6.25;;;4.97;;
52248;SDS011;38541;48.130;8.378;2023-03-21T06:06:13;4.32;;;3.40;;
52248;SDS011;38541;48.130;8.378;2023-03-21T06:11:24;2.78;;;2.50;;
52248;SDS011;38541;48.130;8.378;2023-03-21T06:14:12;3.00;;;2.78;;
52248;SDS011;38541;48.130;8.378;2023-03-21T06:16:39;2.78;;;2.55;;
52248;SDS011;38541;48.130;8.378;2023-03-21T06:19:06;6.75;;;4.00;;
52248;SDS011;38541;48.130;8.378;2023-03-21T06:21:44;6.03;;;3.92;;
52248;SDS011;38541;48.130;8.378;2023-03-21T06:24:11;4.43;;;3.10;;
52248;SDS011;38541;48.130;8.378;2023-03-21T06:26:39;5.47;;;3.22;;
52248;SDS011;38541;48.130;8.378;2023-03-21T06:29:08;4.20;;;2.63;;
52248;SDS011;38541;48.130;8.378;2023-03-21T06:31:34;2.35;;;2.25;;
52248;SDS011;38541;48.130;8.378;2023-03-21T06:34:03;7.82;;;5.55;;
52248;SDS011;38541;48.130;8.378;2023-03-21T06:36:30;6.70;;;4.07;;
52248;SDS011;38541;48.130;8.378;2023-03-21T06:38:57;3.00;;;2.75;;
52248;SDS011;38541;48.130;8.378;2023-03-21T06:41:24;3.10;;;2.83;;
52248;SDS011;38541;48.130;8.378;2023-03-21T06:44:01;5.57;;;3.75;;
52248;SDS011;38541;48.130;8.378;2023-03-21T06:46:32;6.53;;;5.20;;
52248;SDS011;38541;48.130;8.378;2023-03-21T06:48:58;9.57;;;4.50;;
52248;SDS011;38541;48.130;8.378;2023-03-21T06:51:27;5.47;;;4.00;;
52248;SDS011;38541;48.130;8.378;2023-03-21T06:54:04;3.75;;;3.10;;
52248;SDS011;38541;48.130;8.378;2023-03-21T06:56:46;3.83;;;3.42;;
52248;SDS011;38541;48.130;8.378;2023-03-21T06:59:19;8.27;;;5.85;;
52248;SDS011;38541;48.130;8.378;2023-03-21T07:01:54;11.35;;;7.25;;
52248;SDS011;38541;48.130;8.378;2023-03-21T07:04:20;18.80;;;12.77;;
52248;SDS011;38541;48.130;8.378;2023-03-21T07:06:48;31.02;;;21.27;;
52248;SDS011;38541;48.130;8.378;2023-03-21T07:09:16;26.27;;;18.85;;
52248;SDS011;38541;48.130;8.378;2023-03-21T07:11:43;20.13;;;15.75;;
52248;SDS011;38541;48.130;8.378;2023-03-21T07:14:10;20.45;;;16.30;;
52248;SDS011;38541;48.130;8.378;2023-03-21T07:16:37;11.70;;;7.70;;
52248;SDS011;38541;48.130;8.378;2023-03-21T07:19:03;6.00;;;4.90;;
52248;SDS011;38541;48.130;8.378;2023-03-21T07:21:30;5.55;;;4.13;;
52248;SDS011;38541;48.130;8.378;2023-03-21T07:23:59;4.85;;;3.67;;
52248;SDS011;38541;48.130;8.378;2023-03-21T07:26:25;3.78;;;3.30;;
52248;SDS011;38541;48.130;8.378;2023-03-21T07:28:52;3.80;;;3.10;;
52248;SDS011;38541;48.130;8.378;2023-03-21T07:31:19;4.07;;;3.42;;
52248;SDS011;38541;48.130;8.378;2023-03-21T07:33:46;5.25;;;3.47;;
52248;SDS011;38541;48.130;8.378;2023-03-21T07:36:13;5.97;;;4.47;;
52248;SDS011;38541;48.130;8.378;2023-03-21T07:38:42;3.20;;;2.78;;
52248;SDS011;38541;48.130;8.378;2023-03-21T07:41:09;4.72;;;2.90;;
52248;SDS011;38541;48.130;8.378;2023-03-21T07:43:35;2.85;;;2.63;;
52248;SDS011;38541;48.130;8.378;2023-03-21T07:46:07;2.90;;;2.40;;
52248;SDS011;38541;48.130;8.378;2023-03-21T07:48:34;2.50;;;2.30;;
52248;SDS011;38541;48.130;8.378;2023-03-21T07:51:02;2.90;;;2.15;;
52248;SDS011;38541;48.130;8.378;2023-03-21T07:53:29;2.00;;;1.83;;
52248;SDS011;38541;48.130;8.378;2023-03-21T07:55:55;1.95;;;1.42;;
52248;SDS011;38541;48.130;8.378;2023-03-21T07:58:22;1.75;;;1.65;;
52248;SDS011;38541;48.130;8.378;2023-03-21T08:00:50;1.58;;;1.48;;
52248;SDS011;38541;48.130;8.378;2023-03-21T08:03:17;2.63;;;1.67;;
52248;SDS011;38541;48.130;8.378;2023-03-21T08:05:44;1.83;;;1.70;;
52248;SDS011;38541;48.130;8.378;2023-03-21T08:08:11;2.97;;;1.50;;
52248;SDS011;38541;48.130;8.378;2023-03-21T08:10:38;1.50;;;1.40;;
52248;SDS011;38541;48.130;8.378;2023-03-21T08:13:05;1.60;;;1.50;;
52248;SDS011;38541;48.130;8.378;2023-03-21T08:15:31;1.60;;;1.50;;
52248;SDS011;38541;48.130;8.378;2023-03-21T08:17:58;1.33;;;1.23;;
52248;SDS011;38541;48.130;8.378;2023-03-21T08:20:25;2.15;;;1.70;;
52248;SDS011;38541;48.130;8.378;2023-03-21T08:22:53;1.48;;;1.38;;
52248;SDS011;38541;48.130;8.378;2023-03-21T08:25:20;1.52;;;1.33;;
52248;SDS011;38541;48.130;8.378;2023-03-21T08:27:48;1.10;;;1.10;;
52248;SDS011;38541;48.130;8.378;2023-03-21T08:30:16;1.33;;;1.23;;
52248;SDS011;38541;48.130;8.378;2023-03-21T08:32:44;1.20;;;1.20;;
52248;SDS011;38541;48.130;8.378;2023-03-21T08:35:12;1.42;;;1.33;;
52248;SDS011;38541;48.130;8.378;2023-03-21T08:37:41;1.58;;;1.15;;
52248;SDS011;38541;48.130;8.378;2023-03-21T08:40:09;1.25;;;1.15;;
52248;SDS011;38541;48.130;8.378;2023-03-21T08:42:41;0.93;;;0.93;;
52248;SDS011;38541;48.130;8.378;2023-03-21T08:45:09;1.00;;;0.90;;
52248;SDS011;38541;48.130;8.378;2023-03-21T08:47:37;0.90;;;0.90;;
52248;SDS011;38541;48.130;8.378;2023-03-21T08:50:04;1.23;;;1.13;;
52248;SDS011;38541;48.130;8.378;2023-03-21T08:52:33;0.73;;;0.70;;
52248;SDS011;38541;48.130;8.378;2023-03-21T08:54:59;1.95;;;1.70;;
52248;SDS011;38541;48.130;8.378;2023-03-21T08:57:27;1.45;;;0.90;;
52248;SDS011;38541;48.130;8.378;2023-03-21T08:59:54;0.80;;;0.80;;
52248;SDS011;38541;48.130;8.378;2023-03-21T09:02:21;2.05;;;1.08;;
52248;SDS011;38541;48.130;8.378;2023-03-21T09:04:48;2.25;;;0.90;;
52248;SDS011;38541;48.130;8.378;2023-03-21T09:07:15;1.00;;;0.85;;
52248;SDS011;38541;48.130;8.378;2023-03-21T09:09:42;0.80;;;0.80;;
52248;SDS011;38541;48.130;8.378;2023-03-21T09:12:09;1.00;;;1.00;;
52248;SDS011;38541;48.130;8.378;2023-03-21T09:14:36;0.90;;;0.90;;
52248;SDS011;38541;48.130;8.378;2023-03-21T09:17:02;0.77;;;0.77;;
52248;SDS011;38541;48.130;8.378;2023-03-21T09:19:29;0.68;;;0.68;;
52248;SDS011;38541;48.130;8.378;2023-03-21T09:21:57;1.35;;;0.73;;
52248;SDS011;38541;48.130;8.378;2023-03-21T09:24:23;1.10;;;1.10;;
52248;SDS011;38541;48.130;8.378;2023-03-21T09:26:51;1.02;;;1.00;;
52248;SDS011;38541;48.130;8.378;2023-03-21T09:29:18;1.25;;;1.13;;
52248;SDS011;38541;48.130;8.378;2023-03-21T09:31:46;2.28;;;1.35;;
52248;SDS011;38541;48.130;8.378;2023-03-21T09:34:13;2.83;;;1.50;;
52248;SDS011;38541;48.130;8.378;2023-03-21T09:36:41;1.05;;;1.00;;
52248;SDS011;38541;48.130;8.378;2023-03-21T09:39:09;1.40;;;1.30;;
52248;SDS011;38541;48.130;8.378;2023-03-21T09:41:44;0.98;;;0.95;;
52248;SDS011;38541;48.130;8.378;2023-03-21T09:47:14;1.20;;;1.10;;
52248;SDS011;38541;48.130;8.378;2023-03-21T09:49:47;1.23;;;1.13;;
52248;SDS011;38541;48.130;8.378;2023-03-21T09:52:26;2.08;;;1.98;;
52248;SDS011;38541;48.130;8.378;2023-03-21T09:54:57;1.45;;;1.33;;
52248;SDS011;38541;48.130;8.378;2023-03-21T09:57:32;1.48;;;1.38;;
52248;SDS011;38541;48.130;8.378;2023-03-21T10:00:09;1.42;;;1.33;;
52248;SDS011;38541;48.130;8.378;2023-03-21T10:02:48;1.30;;;1.20;;
52248;SDS011;38541;48.130;8.378;2023-03-21T10:05:23;2.70;;;1.80;;
52248;SDS011;38541;48.130;8.378;2023-03-21T10:08:06;1.52;;;1.42;;
52248;SDS011;38541;48.130;8.378;2023-03-21T10:10:40;1.98;;;1.88;;
52248;SDS011;38541;48.130;8.378;2023-03-21T10:13:18;1.58;;;1.48;;
52248;SDS011;38541;48.130;8.378;2023-03-21T10:15:47;1.77;;;1.67;;
52248;SDS011;38541;48.130;8.378;2023-03-21T10:18:21;1.92;;;1.70;;
52248;SDS011;38541;48.130;8.378;2023-03-21T10:20:51;1.42;;;1.33;;
52248;SDS011;38541;48.130;8.378;2023-03-21T10:23:20;2.83;;;1.30;;
52248;SDS011;38541;48.130;8.378;2023-03-21T10:25:54;1.38;;;1.27;;
52248;SDS011;38541;48.130;8.378;2023-03-21T10:28:27;1.60;;;1.48;;
52248;SDS011;38541;48.130;8.378;2023-03-21T10:31:16;2.08;;;1.50;;
52248;SDS011;38541;48.130;8.378;2023-03-21T10:33:47;1.80;;;1.70;;
52248;SDS011;38541;48.130;8.378;2023-03-21T10:36:25;1.52;;;1.38;;
52248;SDS011;38541;48.130;8.378;2023-03-21T10:38:58;1.40;;;1.25;;
52248;SDS011;38541;48.130;8.378;2023-03-21T10:41:30;1.40;;;1.30;;
52248;SDS011;38541;48.130;8.378;2023-03-21T10:44:03;1.75;;;1.60;;
52248;SDS011;38541;48.130;8.378;2023-03-21T10:46:34;1.67;;;1.58;;
52248;SDS011;38541;48.130;8.378;2023-03-21T10:49:02;1.20;;;1.20;;
52248;SDS011;38541;48.130;8.378;2023-03-21T10:51:32;1.40;;;1.30;;
52248;SDS011;38541;48.130;8.378;2023-03-21T10:54:06;1.63;;;1.52;;
52248;SDS011;38541;48.130;8.378;2023-03-21T10:56:37;1.42;;;1.33;;
52248;SDS011;38541;48.130;8.378;2023-03-21T10:59:09;1.25;;;1.20;;
52248;SDS011;38541;48.130;8.378;2023-03-21T11:01:47;1.70;;;1.30;;
52248;SDS011;38541;48.130;8.378;2023-03-21T11:04:21;1.20;;;1.10;;
52248;SDS011;38541;48.130;8.378;2023-03-21T11:09:23;1.40;;;1.30;;
52248;SDS011;38541;48.130;8.378;2023-03-21T11:11:53;1.25;;;1.15;;
52248;SDS011;38541;48.130;8.378;2023-03-21T11:14:48;1.60;;;1.50;;
52248;SDS011;38541;48.130;8.378;2023-03-21T11:19:48;0.90;;;0.90;;
52248;SDS011;38541;48.130;8.378;2023-03-21T11:22:17;1.13;;;1.08;;
52248;SDS011;38541;48.130;8.378;2023-03-21T11:24:48;1.77;;;1.63;;
52248;SDS011;38541;48.130;8.378;2023-03-21T11:27:17;1.58;;;0.90;;
52248;SDS011;38541;48.130;8.378;2023-03-21T11:29:45;1.15;;;1.10;;
52248;SDS011;38541;48.130;8.378;2023-03-21T11:37:39;1.10;;;1.00;;
52248;SDS011;38541;48.130;8.378;2023-03-21T11:42:40;0.90;;;0.90;;
52248;SDS011;38541;48.130;8.378;2023-03-21T11:45:14;1.00;;;1.00;;
52248;SDS011;38541;48.130;8.378;2023-03-21T11:47:43;0.90;;;0.90;;
52248;SDS011;38541;48.130;8.378;2023-03-21T11:50:28;1.10;;;0.90;;
52248;SDS011;38541;48.130;8.378;2023-03-21T11:55:46;0.90;;;0.85;;
52248;SDS011;38541;48.130;8.378;2023-03-21T12:07:01;1.33;;;0.90;;
52248;SDS011;38541;48.130;8.378;2023-03-21T12:09:42;0.65;;;0.65;;
52248;SDS011;38541;48.130;8.378;2023-03-21T12:18:02;1.73;;;1.63;;
52248;SDS011;38541;48.130;8.378;2023-03-21T12:20:51;0.85;;;0.85;;
52248;SDS011;38541;48.130;8.378;2023-03-21T12:40:18;0.93;;;0.93;;
52248;SDS011;38541;48.130;8.378;2023-03-21T12:43:21;2.35;;;1.50;;
52248;SDS011;38541;48.130;8.378;2023-03-21T12:45:51;1.05;;;0.93;;
52248;SDS011;38541;48.130;8.378;2023-03-21T12:50:53;2.25;;;1.77;;
52248;SDS011;38541;48.130;8.378;2023-03-21T12:53:33;1.50;;;1.40;;
52248;SDS011;38541;48.130;8.378;2023-03-21T12:56:06;1.25;;;1.10;;
52248;SDS011;38541;48.130;8.378;2023-03-21T12:58:43;1.10;;;0.93;;
52248;SDS011;38541;48.130;8.378;2023-03-21T13:01:14;1.23;;;1.13;;
52248;SDS011;38541;48.130;8.378;2023-03-21T13:03:50;0.60;;;0.60;;
52248;SDS011;38541;48.130;8.378;2023-03-21T13:06:24;0.75;;;0.75;;
52248;SDS011;38541;48.130;8.378;2023-03-21T13:11:33;2.22;;;0.68;;
52248;SDS011;38541;48.130;8.378;2023-03-21T13:14:03;0.70;;;0.70;;
52248;SDS011;38541;48.130;8.378;2023-03-21T13:16:35;0.60;;;0.60;;
52248;SDS011;38541;48.130;8.378;2023-03-21T13:26:44;1.58;;;1.20;;
52248;SDS011;38541;48.130;8.378;2023-03-21T13:29:27;1.08;;;0.90;;
52248;SDS011;38541;48.130;8.378;2023-03-21T13:32:14;1.13;;;1.02;;
52248;SDS011;38541;48.130;8.378;2023-03-21T13:34:42;2.53;;;1.27;;
52248;SDS011;38541;48.130;8.378;2023-03-21T13:37:12;1.63;;;1.52;;
52248;SDS011;38541;48.130;8.378;2023-03-21T13:39:44;1.13;;;0.98;;
52248;SDS011;38541;48.130;8.378;2023-03-21T13:42:16;1.48;;;0.80;;
52248;SDS011;38541;48.130;8.378;2023-03-21T13:44:48;0.93;;;0.77;;
52248;SDS011;38541;48.130;8.378;2023-03-21T13:47:23;1.27;;;1.02;;
52248;SDS011;38541;48.130;8.378;2023-03-21T13:55:45;0.60;;;0.60;;
52248;SDS011;38541;48.130;8.378;2023-03-21T13:58:38;0.70;;;0.65;;
52248;SDS011;38541;48.130;8.378;2023-03-21T14:04:11;1.70;;;1.58;;
52248;SDS011;38541;48.130;8.378;2023-03-21T14:09:45;0.63;;;0.60;;
52248;SDS011;38541;48.130;8.378;2023-03-21T14:12:15;1.53;;;0.63;;
52248;SDS011;38541;48.130;8.378;2023-03-21T14:17:56;0.52;;;0.45;;
52248;SDS011;38541;48.130;8.378;2023-03-21T14:20:26;0.70;;;0.70;;
52248;SDS011;38541;48.130;8.378;2023-03-21T14:22:54;1.13;;;0.95;;
52248;SDS011;38541;48.130;8.378;2023-03-21T14:25:21;0.80;;;0.80;;
52248;SDS011;38541;48.130;8.378;2023-03-21T14:27:56;0.73;;;0.73;;
52248;SDS011;38541;48.130;8.378;2023-03-21T14:30:28;0.80;;;0.80;;
52248;SDS011;38541;48.130;8.378;2023-03-21T14:33:12;0.55;;;0.55;;
52248;SDS011;38541;48.130;8.378;2023-03-21T14:35:44;1.27;;;0.70;;
52248;SDS011;38541;48.130;8.378;2023-03-21T14:38:22;0.70;;;0.70;;
52248;SDS011;38541;48.130;8.378;2023-03-21T14:40:52;0.63;;;0.63;;
52248;SDS011;38541;48.130;8.378;2023-03-21T14:43:21;0.55;;;0.55;;
52248;SDS011;38541;48.130;8.378;2023-03-21T14:45:50;1.10;;;1.00;;
52248;SDS011;38541;48.130;8.378;2023-03-21T14:48:18;0.50;;;0.50;;
52248;SDS011;38541;48.130;8.378;2023-03-21T14:50:49;0.93;;;0.85;;
52248;SDS011;38541;48.130;8.378;2023-03-21T14:53:20;0.70;;;0.70;;
52248;SDS011;38541;48.130;8.378;2023-03-21T14:55:58;0.90;;;0.50;;
52248;SDS011;38541;48.130;8.378;2023-03-21T14:58:29;0.80;;;0.80;;
52248;SDS011;38541;48.130;8.378;2023-03-21T15:00:57;0.70;;;0.70;;
52248;SDS011;38541;48.130;8.378;2023-03-21T15:03:28;0.60;;;0.60;;
52248;SDS011;38541;48.130;8.378;2023-03-21T15:05:56;0.60;;;0.60;;
52248;SDS011;38541;48.130;8.378;2023-03-21T15:08:25;0.70;;;0.50;;
52248;SDS011;38541;48.130;8.378;2023-03-21T15:11:03;1.88;;;1.13;;
52248;SDS011;38541;48.130;8.378;2023-03-21T15:13:34;4.10;;;1.70;;
52248;SDS011;38541;48.130;8.378;2023-03-21T15:16:05;0.82;;;0.73;;
52248;SDS011;38541;48.130;8.378;2023-03-21T15:18:33;0.68;;;0.60;;
52248;SDS011;38541;48.130;8.378;2023-03-21T15:21:11;1.00;;;1.00;;
52248;SDS011;38541;48.130;8.378;2023-03-21T15:23:57;0.82;;;0.82;;
52248;SDS011;38541;48.130;8.378;2023-03-21T15:26:30;0.93;;;0.80;;
52248;SDS011;38541;48.130;8.378;2023-03-21T15:28:57;0.75;;;0.75;;
52248;SDS011;38541;48.130;8.378;2023-03-21T15:31:28;0.63;;;0.63;;
52248;SDS011;38541;48.130;8.378;2023-03-21T15:33:59;0.73;;;0.73;;
52248;SDS011;38541;48.130;8.378;2023-03-21T15:36:28;1.00;;;1.00;;
52248;SDS011;38541;48.130;8.378;2023-03-21T15:39:10;0.80;;;0.80;;
52248;SDS011;38541;48.130;8.378;2023-03-21T15:41:39;1.25;;;1.10;;
52248;SDS011;38541;48.130;8.378;2023-03-21T15:49:17;1.33;;;0.80;;
52248;SDS011;38541;48.130;8.378;2023-03-21T15:51:47;0.70;;;0.70;;
52248;SDS011;38541;48.130;8.378;2023-03-21T15:54:23;0.75;;;0.75;;
52248;SDS011;38541;48.130;8.378;2023-03-21T15:56:56;0.70;;;0.70;;
52248;SDS011;38541;48.130;8.378;2023-03-21T15:59:31;0.75;;;0.75;;
52248;SDS011;38541;48.130;8.378;2023-03-21T16:02:00;1.17;;;1.08;;
52248;SDS011;38541;48.130;8.378;2023-03-21T16:04:28;0.80;;;0.80;;
52248;SDS011;38541;48.130;8.378;2023-03-21T16:06:57;0.98;;;0.98;;
52248;SDS011;38541;48.130;8.378;2023-03-21T16:09:40;0.98;;;0.95;;
52248;SDS011;38541;48.130;8.378;2023-03-21T16:12:12;0.70;;;0.70;;
52248;SDS011;38541;48.130;8.378;2023-03-21T16:14:41;0.57;;;0.50;;
52248;SDS011;38541;48.130;8.378;2023-03-21T16:17:29;0.60;;;0.60;;
52248;SDS011;38541;48.130;8.378;2023-03-21T16:19:59;0.70;;;0.70;;
52248;SDS011;38541;48.130;8.378;2023-03-21T16:22:26;2.00;;;0.60;;
52248;SDS011;38541;48.130;8.378;2023-03-21T16:24:54;0.63;;;0.63;;
52248;SDS011;38541;48.130;8.378;2023-03-21T16:27:20;0.77;;;0.77;;
52248;SDS011;38541;48.130;8.378;2023-03-21T16:29:47;1.05;;;0.77;;
52248;SDS011;38541;48.130;8.378;2023-03-21T16:32:14;1.45;;;0.70;;
52248;SDS011;38541;48.130;8.378;2023-03-21T16:34:42;0.85;;;0.70;;
52248;SDS011;38541;48.130;8.378;2023-03-21T16:37:09;1.02;;;0.88;;
52248;SDS011;38541;48.130;8.378;2023-03-21T16:39:37;0.95;;;0.95;;
52248;SDS011;38541;48.130;8.378;2023-03-21T16:42:03;0.85;;;0.80;;
52248;SDS011;38541;48.130;8.378;2023-03-21T16:44:30;1.92;;;1.75;;
52248;SDS011;38541;48.130;8.378;2023-03-21T16:46:58;1.00;;;1.00;;
52248;SDS011;38541;48.130;8.378;2023-03-21T16:49:27;2.38;;;1.40;;
52248;SDS011;38541;48.130;8.378;2023-03-21T16:51:54;1.10;;;1.00;;
52248;SDS011;38541;48.130;8.378;2023-03-21T16:54:22;1.10;;;1.00;;
52248;SDS011;38541;48.130;8.378;2023-03-21T16:56:50;0.82;;;0.80;;
52248;SDS011;38541;48.130;8.378;2023-03-21T16:59:18;1.40;;;0.90;;
52248;SDS011;38541;48.130;8.378;2023-03-21T17:01:45;1.90;;;1.20;;
52248;SDS011;38541;48.130;8.378;2023-03-21T17:04:14;1.85;;;1.00;;
52248;SDS011;38541;48.130;8.378;2023-03-21T17:06:46;1.10;;;1.00;;
52248;SDS011;38541;48.130;8.378;2023-03-21T17:09:15;1.50;;;1.40;;
52248;SDS011;38541;48.130;8.378;2023-03-21T17:11:43;1.35;;;1.10;;